createdAt,value
2022-08-10T00:00:23.414Z,17.04
2022-08-10T00:01:23.438Z,16.99
2022-08-10T00:02:23.387Z,17.02
2022-08-10T00:03:23.399Z,17.04
2022-08-10T00:04:23.733Z,17.04
2022-08-10T00:05:23.383Z,16.94
2022-08-10T00:06:23.372Z,16.97
2022-08-10T00:07:23.377Z,16.90
2022-08-10T00:08:24.158Z,16.97
2022-08-10T00:09:23.427Z,16.93
2022-08-10T00:10:23.363Z,16.89
2022-08-10T00:11:23.389Z,16.89
2022-08-10T00:12:23.379Z,16.89
2022-08-10T00:13:23.394Z,16.84
2022-08-10T00:14:23.375Z,16.84
2022-08-10T00:15:53.165Z,16.75
2022-08-10T00:16:23.366Z,16.74
2022-08-10T00:17:23.335Z,16.78
2022-08-10T00:18:34.996Z,16.71
2022-08-10T00:19:23.342Z,16.68
2022-08-10T00:20:23.321Z,16.66
2022-08-10T00:21:23.326Z,16.65
2022-08-10T00:22:23.318Z,16.58
2022-08-10T00:23:23.318Z,16.58
2022-08-10T00:24:23.313Z,16.57
2022-08-10T00:25:23.310Z,16.57
2022-08-10T00:26:23.309Z,16.46
2022-08-10T00:28:01.318Z,16.53
2022-08-10T00:28:23.299Z,16.46
2022-08-10T00:29:23.298Z,16.39
2022-08-10T00:30:23.292Z,16.43
2022-08-10T00:31:23.288Z,16.50
2022-08-10T00:32:23.287Z,16.46
2022-08-10T00:33:23.282Z,16.47
2022-08-10T00:34:23.277Z,16.43
2022-08-10T00:35:23.277Z,16.49
2022-08-10T00:36:23.274Z,16.42
2022-08-10T00:37:23.268Z,16.46
2022-08-10T00:38:23.264Z,16.49
2022-08-10T00:39:23.282Z,16.39
2022-08-10T00:40:37.841Z,16.32
2022-08-10T00:41:23.268Z,16.33
2022-08-10T00:42:23.255Z,16.32
2022-08-10T00:43:24.144Z,16.28
2022-08-10T00:44:23.244Z,16.31
2022-08-10T00:45:23.244Z,16.26
2022-08-10T00:46:23.240Z,16.21
2022-08-10T00:47:37.281Z,16.12
2022-08-10T00:48:23.229Z,16.23
2022-08-10T00:49:23.223Z,16.20
2022-08-10T00:50:23.219Z,16.17
2022-08-10T00:51:23.217Z,16.15
2022-08-10T00:52:23.219Z,16.16
2022-08-10T00:53:23.211Z,16.13
2022-08-10T00:54:24.430Z,16.21
2022-08-10T00:55:23.203Z,16.12
2022-08-10T00:57:12.373Z,16.15
2022-08-10T00:57:23.195Z,16.24
2022-08-10T00:58:23.197Z,16.10
2022-08-10T00:59:23.184Z,16.15
2022-08-10T01:00:23.186Z,16.13
2022-08-10T01:02:09.565Z,16.10
2022-08-10T01:02:23.230Z,16.12
2022-08-10T01:04:40.052Z,16.12
2022-08-10T01:04:54.658Z,16.08
2022-08-10T01:05:23.168Z,16.09
2022-08-10T01:06:23.162Z,16.04
2022-08-10T01:07:23.161Z,16.04
2022-08-10T01:08:23.159Z,15.98
2022-08-10T01:09:23.149Z,16.04
2022-08-10T01:10:23.147Z,15.98
2022-08-10T01:11:42.347Z,15.94
2022-08-10T01:12:39.043Z,15.92
2022-08-10T01:13:23.213Z,15.92
2022-08-10T01:14:23.131Z,15.97
2022-08-10T01:15:23.131Z,15.88
2022-08-10T01:16:23.123Z,15.97
2022-08-10T01:17:23.126Z,15.82
2022-08-10T01:18:23.112Z,15.97
2022-08-10T01:19:23.115Z,15.88
2022-08-10T01:20:30.323Z,15.77
2022-08-10T01:21:23.106Z,15.82
2022-08-10T01:22:23.100Z,15.84
2022-08-10T01:23:23.097Z,15.77
2022-08-10T01:24:23.223Z,15.75
2022-08-10T01:25:23.090Z,15.80
2022-08-10T01:26:31.035Z,15.68
2022-08-10T01:27:26.954Z,15.75
2022-08-10T01:28:23.076Z,15.76
2022-08-10T01:29:23.071Z,15.55
2022-08-10T01:30:23.066Z,15.59
2022-08-10T01:31:23.071Z,15.54
2022-08-10T01:32:23.058Z,15.44
2022-08-10T01:35:18.097Z,15.42
2022-08-10T01:35:55.184Z,15.43
2022-08-10T01:36:55.179Z,15.39
2022-08-10T01:37:55.176Z,15.35
2022-08-10T01:38:55.182Z,15.42
2022-08-10T01:39:55.251Z,15.31
2022-08-10T01:40:55.162Z,15.39
2022-08-10T01:41:55.159Z,15.29
2022-08-10T01:42:55.155Z,15.36
2022-08-10T01:43:55.154Z,15.25
2022-08-10T01:44:55.148Z,15.27
2022-08-10T01:45:55.146Z,15.28
2022-08-10T01:46:56.923Z,15.27
2022-08-10T01:47:55.147Z,15.24
2022-08-10T01:48:55.132Z,15.31
2022-08-10T01:49:55.127Z,15.19
2022-08-10T01:50:59.814Z,15.21
2022-08-10T01:51:55.121Z,15.27
2022-08-10T01:52:55.116Z,15.25
2022-08-10T01:53:55.110Z,15.24
2022-08-10T01:54:56.125Z,15.27
2022-08-10T01:55:55.112Z,15.17
2022-08-10T01:56:55.102Z,15.21
2022-08-10T01:57:55.097Z,15.18
2022-08-10T01:58:55.091Z,15.15
2022-08-10T02:00:02.086Z,15.19
2022-08-10T02:00:55.135Z,15.19
2022-08-10T02:01:55.078Z,15.15
2022-08-10T02:02:55.075Z,15.22
2022-08-10T02:04:03.702Z,15.19
2022-08-10T02:04:55.068Z,15.19
2022-08-10T02:05:55.078Z,15.07
2022-08-10T02:06:55.063Z,15.17
2022-08-10T02:07:55.053Z,15.15
2022-08-10T02:08:55.832Z,15.09
2022-08-10T02:09:55.047Z,15.07
2022-08-10T02:10:55.040Z,15.07
2022-08-10T02:12:07.784Z,14.96
2022-08-10T02:12:55.030Z,15.09
2022-08-10T02:13:55.028Z,15.00
2022-08-10T02:14:55.026Z,15.06
2022-08-10T02:16:01.146Z,15.02
2022-08-10T02:16:55.016Z,14.99
2022-08-10T02:18:00.526Z,14.97
2022-08-10T02:18:55.007Z,14.97
2022-08-10T02:19:55.001Z,14.99
2022-08-10T02:20:55.003Z,14.94
2022-08-10T02:22:35.124Z,14.92
2022-08-10T02:22:54.990Z,14.92
2022-08-10T02:23:59.619Z,14.84
2022-08-10T02:24:54.984Z,14.86
2022-08-10T02:25:54.980Z,14.89
2022-08-10T02:26:56.435Z,14.84
2022-08-10T02:27:54.966Z,14.82
2022-08-10T02:28:54.966Z,14.78
2022-08-10T02:29:54.965Z,14.86
2022-08-10T02:30:54.954Z,14.81
2022-08-10T02:31:54.949Z,14.86
2022-08-10T02:32:54.946Z,14.79
2022-08-10T02:33:57.439Z,14.85
2022-08-10T02:34:54.939Z,14.78
2022-08-10T02:35:55.871Z,14.85
2022-08-10T02:36:54.930Z,14.81
2022-08-10T02:37:54.926Z,14.73
2022-08-10T02:38:58.874Z,14.77
2022-08-10T02:39:54.914Z,14.77
2022-08-10T02:45:01.952Z,14.72
2022-08-10T02:45:14.711Z,14.72
2022-08-10T02:45:18.652Z,14.63
2022-08-10T02:45:21.963Z,14.68
2022-08-10T02:45:29.430Z,14.66
2022-08-10T02:45:54.890Z,14.70
2022-08-10T02:46:54.885Z,14.66
2022-08-10T02:47:54.884Z,14.54
2022-08-10T02:48:54.875Z,14.54
2022-08-10T02:49:54.870Z,14.62
2022-08-10T02:50:54.868Z,14.60
2022-08-10T02:52:07.971Z,14.62
2022-08-10T02:52:54.858Z,14.62
2022-08-10T02:53:57.247Z,14.59
2022-08-10T02:54:54.849Z,14.65
2022-08-10T02:55:54.844Z,14.59
2022-08-10T02:56:54.850Z,14.53
2022-08-10T02:58:16.922Z,14.60
2022-08-10T02:58:54.830Z,14.62
2022-08-10T02:59:54.829Z,14.58
2022-08-10T03:00:54.898Z,14.58
2022-08-10T03:01:54.816Z,14.54
2022-08-10T03:02:54.817Z,14.48
2022-08-10T03:03:54.810Z,14.58
2022-08-10T03:04:57.742Z,14.47
2022-08-10T03:05:54.802Z,14.44
2022-08-10T03:06:54.793Z,14.37
2022-08-10T03:07:54.787Z,14.41
2022-08-10T03:08:54.789Z,14.37
2022-08-10T03:09:54.794Z,14.35
2022-08-10T03:10:54.779Z,14.32
2022-08-10T03:12:35.282Z,14.36
2022-08-10T03:12:55.038Z,14.40
2022-08-10T03:13:59.845Z,14.43
2022-08-10T03:14:54.760Z,14.37
2022-08-10T03:15:54.751Z,14.43
2022-08-10T03:16:54.748Z,14.43
2022-08-10T03:17:57.755Z,14.41
2022-08-10T03:18:54.747Z,14.41
2022-08-10T03:20:35.737Z,14.35
2022-08-10T03:20:54.732Z,14.40
2022-08-10T03:21:54.727Z,14.37
2022-08-10T03:22:54.723Z,14.30
2022-08-10T03:23:54.711Z,14.36
2022-08-10T03:24:54.712Z,14.33
2022-08-10T03:25:55.054Z,14.30
2022-08-10T03:26:54.702Z,14.25
2022-08-10T03:27:54.698Z,14.29
2022-08-10T03:28:54.696Z,14.28
2022-08-10T03:30:28.522Z,14.32
2022-08-10T03:30:54.738Z,14.26
2022-08-10T03:31:54.679Z,14.17
2022-08-10T03:32:54.677Z,14.18
2022-08-10T03:33:54.671Z,14.33
2022-08-10T03:34:54.667Z,14.30
2022-08-10T03:36:41.691Z,14.28
2022-08-10T03:36:54.656Z,14.29
2022-08-10T03:37:59.238Z,14.35
2022-08-10T03:38:54.649Z,14.41
2022-08-10T03:39:54.643Z,14.32
2022-08-10T03:40:54.638Z,14.40
2022-08-10T03:41:54.634Z,14.37
2022-08-10T03:42:54.629Z,14.41
2022-08-10T03:43:54.626Z,14.37
2022-08-10T03:44:54.619Z,14.47
2022-08-10T03:45:56.482Z,14.40
2022-08-10T03:46:54.611Z,14.36
2022-08-10T03:47:54.605Z,14.35
2022-08-10T03:48:54.600Z,14.41
2022-08-10T03:49:54.596Z,14.44
2022-08-10T03:50:54.592Z,14.41
2022-08-10T03:51:54.586Z,14.40
2022-08-10T03:52:54.578Z,14.41
2022-08-10T03:54:02.930Z,14.41
2022-08-10T03:54:54.572Z,14.44
2022-08-10T03:56:30.495Z,14.43
2022-08-10T03:56:54.564Z,14.44
2022-08-10T03:57:54.558Z,14.45
2022-08-10T03:58:54.556Z,14.41
2022-08-10T03:59:54.545Z,14.45
2022-08-10T04:00:54.602Z,14.43
2022-08-10T04:02:44.141Z,14.45
2022-08-10T04:02:54.773Z,14.47
2022-08-10T04:04:11.550Z,14.41
2022-08-10T04:04:54.524Z,14.36
2022-08-10T04:05:54.530Z,14.32
2022-08-10T04:06:55.388Z,14.43
2022-08-10T04:07:54.512Z,14.37
2022-08-10T04:08:54.505Z,14.37
2022-08-10T04:09:56.420Z,14.50
2022-08-10T04:10:54.496Z,14.44
2022-08-10T04:11:54.489Z,14.45
2022-08-10T04:12:54.489Z,14.48
2022-08-10T04:13:54.480Z,14.50
2022-08-10T04:14:54.477Z,14.59
2022-08-10T04:15:54.470Z,14.66
2022-08-10T04:16:54.469Z,14.59
2022-08-10T04:18:05.115Z,14.62
2022-08-10T04:18:54.466Z,14.65
2022-08-10T04:19:54.449Z,14.70
2022-08-10T04:20:54.446Z,14.79
2022-08-10T04:21:54.447Z,14.78
2022-08-10T04:22:54.436Z,14.79
2022-08-10T04:23:54.435Z,14.72
2022-08-10T04:24:54.423Z,14.72
2022-08-10T04:25:54.420Z,14.73
2022-08-10T04:26:54.419Z,14.69
2022-08-10T04:27:54.411Z,14.63
2022-08-10T04:28:54.408Z,14.65
2022-08-10T04:29:54.400Z,14.59
2022-08-10T04:30:54.396Z,14.59
2022-08-10T04:31:54.396Z,14.70
2022-08-10T04:32:54.392Z,14.59
2022-08-10T04:33:54.384Z,14.70
2022-08-10T04:34:54.377Z,14.69
2022-08-10T04:35:54.375Z,14.70
2022-08-10T04:36:54.379Z,14.79
2022-08-10T04:37:54.362Z,14.92
2022-08-10T04:38:54.358Z,14.99
2022-08-10T04:39:54.354Z,14.99
2022-08-10T04:40:54.348Z,15.09
2022-08-10T04:41:54.339Z,15.04
2022-08-10T04:42:54.336Z,15.15
2022-08-10T04:43:54.334Z,15.28
2022-08-10T04:44:54.328Z,15.28
2022-08-10T04:45:54.327Z,15.28
2022-08-10T04:46:58.552Z,15.44
2022-08-10T04:48:00.544Z,15.52
2022-08-10T04:49:01.611Z,15.75
2022-08-10T04:49:56.882Z,15.88
2022-08-10T04:50:54.298Z,16.28
2022-08-10T04:51:54.429Z,16.51
2022-08-10T04:52:54.303Z,16.93
2022-08-10T04:54:05.454Z,17.24
2022-08-10T04:54:54.284Z,17.72
2022-08-10T04:55:54.280Z,18.04
2022-08-10T04:56:54.275Z,18.40
2022-08-10T04:57:54.270Z,18.84
2022-08-10T04:58:54.271Z,18.98
2022-08-10T04:59:54.257Z,18.98
2022-08-10T05:00:54.443Z,19.08
2022-08-10T05:02:22.435Z,19.34
2022-08-10T05:02:54.248Z,19.54
2022-08-10T05:04:37.304Z,19.37
2022-08-10T05:04:54.242Z,19.49
2022-08-10T05:05:54.245Z,19.85
2022-08-10T05:06:54.235Z,19.56
2022-08-10T05:07:56.959Z,19.67
2022-08-10T05:08:54.231Z,20.29
2022-08-10T05:10:01.597Z,20.70
2022-08-10T05:10:54.224Z,21.12
2022-08-10T05:11:54.216Z,21.21
2022-08-10T05:12:54.220Z,21.24
2022-08-10T05:13:54.212Z,21.50
2022-08-10T05:14:54.756Z,21.82
2022-08-10T05:15:54.202Z,22.08
2022-08-10T05:16:54.202Z,22.50
2022-08-10T05:18:06.845Z,21.95
2022-08-10T05:18:54.195Z,21.66
2022-08-10T05:20:03.718Z,21.25
2022-08-10T05:20:54.189Z,20.72
2022-08-10T05:22:03.755Z,20.19
2022-08-10T05:22:54.186Z,20.32
2022-08-10T05:23:54.181Z,20.58
2022-08-10T05:24:54.179Z,20.90
2022-08-10T05:25:54.181Z,20.93
2022-08-10T05:27:00.279Z,20.90
2022-08-10T05:27:57.480Z,21.03
2022-08-10T05:28:54.172Z,21.60
2022-08-10T05:30:01.802Z,21.69
2022-08-10T05:30:54.163Z,21.66
2022-08-10T05:31:54.165Z,22.06
2022-08-10T05:32:59.157Z,22.36
2022-08-10T05:33:54.166Z,22.29
2022-08-10T05:34:54.165Z,22.76
2022-08-10T05:35:57.844Z,22.38
2022-08-10T05:36:54.154Z,21.67
2022-08-10T05:38:12.019Z,21.62
2022-08-10T05:38:54.153Z,21.60
2022-08-10T05:39:54.186Z,20.75
2022-08-10T05:40:54.155Z,20.39
2022-08-10T05:41:54.139Z,20.22
2022-08-10T05:42:54.144Z,20.48
2022-08-10T05:43:54.142Z,20.70
2022-08-10T05:44:54.152Z,21.15
2022-08-10T05:46:17.006Z,21.57
2022-08-10T05:46:54.138Z,21.82
2022-08-10T05:48:54.290Z,22.29
2022-08-10T05:49:00.006Z,22.59
2022-08-10T05:49:54.132Z,23.12
2022-08-10T05:50:54.136Z,23.59
2022-08-10T05:51:54.133Z,23.96
2022-08-10T05:52:54.131Z,24.13
2022-08-10T05:54:00.956Z,24.26
2022-08-10T05:54:54.126Z,23.80
2022-08-10T05:55:54.126Z,23.80
2022-08-10T05:56:58.087Z,23.32
2022-08-10T05:57:54.122Z,23.62
2022-08-10T05:58:54.142Z,24.06
2022-08-10T06:00:10.686Z,24.74
2022-08-10T06:00:54.276Z,24.69
2022-08-10T06:02:31.681Z,24.91
2022-08-10T06:02:54.118Z,24.78
2022-08-10T06:03:54.115Z,25.11
2022-08-10T06:04:54.117Z,25.29
2022-08-10T06:05:54.128Z,25.62
2022-08-10T06:06:54.120Z,25.98
2022-08-10T06:07:54.112Z,25.55
2022-08-10T06:08:54.116Z,25.55
2022-08-10T06:09:59.910Z,24.89
2022-08-10T06:12:26.566Z,24.06
2022-08-10T06:12:28.404Z,23.91
2022-08-10T06:12:56.644Z,24.51
2022-08-10T06:14:13.137Z,24.88
2022-08-10T06:14:59.774Z,24.91
2022-08-10T06:15:54.112Z,24.85
2022-08-10T06:16:54.113Z,25.13
2022-08-10T06:18:01.815Z,25.47
2022-08-10T06:18:54.114Z,25.40
2022-08-10T06:19:54.122Z,25.91
2022-08-10T06:20:54.115Z,26.38
2022-08-10T06:22:01.155Z,26.58
2022-08-10T06:22:54.116Z,26.90
2022-08-10T06:23:54.113Z,27.14
2022-08-10T06:25:21.748Z,27.45
2022-08-10T06:26:12.027Z,27.49
2022-08-10T06:26:54.117Z,27.85
2022-08-10T06:27:54.116Z,27.39
2022-08-10T06:29:02.638Z,27.35
2022-08-10T06:29:54.123Z,27.42
2022-08-10T06:30:54.121Z,27.14
2022-08-10T06:31:54.120Z,26.77
2022-08-10T06:32:54.125Z,26.15
2022-08-10T06:33:54.123Z,25.48
2022-08-10T06:34:54.124Z,25.31
2022-08-10T06:35:54.131Z,24.54
2022-08-10T06:36:54.297Z,24.21
2022-08-10T06:37:54.128Z,24.24
2022-08-10T06:38:54.377Z,24.21
2022-08-10T06:39:54.165Z,24.60
2022-08-10T06:40:54.132Z,24.74
2022-08-10T06:42:14.307Z,25.23
2022-08-10T06:42:54.135Z,25.91
2022-08-10T06:43:54.135Z,26.70
2022-08-10T06:44:54.140Z,27.33
2022-08-10T06:46:07.423Z,27.86
2022-08-10T06:46:54.142Z,28.15
2022-08-10T06:47:54.143Z,28.17
2022-08-10T06:48:54.146Z,27.75
2022-08-10T06:49:54.145Z,26.05
2022-08-10T06:50:57.920Z,24.81
2022-08-10T06:51:57.013Z,24.61
2022-08-10T06:52:54.152Z,24.58
2022-08-10T06:53:55.236Z,24.99
2022-08-10T06:54:54.157Z,25.33
2022-08-10T06:55:56.407Z,25.98
2022-08-10T06:57:16.482Z,26.51
2022-08-10T06:57:59.677Z,27.07
2022-08-10T06:58:54.165Z,26.56
2022-08-10T06:59:54.165Z,26.09
2022-08-10T07:00:54.242Z,26.05
2022-08-10T07:01:54.240Z,26.31
2022-08-10T07:02:54.172Z,26.45
2022-08-10T07:03:54.174Z,26.66
2022-08-10T07:04:54.177Z,26.99
2022-08-10T07:05:54.181Z,26.74
2022-08-10T07:06:54.190Z,27.27
2022-08-10T07:07:54.187Z,27.92
2022-08-10T07:08:54.188Z,28.45
2022-08-10T07:09:54.187Z,28.72
2022-08-10T07:10:54.190Z,28.88
2022-08-10T07:11:54.188Z,28.97
2022-08-10T07:12:54.199Z,28.57
2022-08-10T07:14:15.696Z,28.69
2022-08-10T07:14:54.199Z,28.72
2022-08-10T07:15:59.745Z,29.12
2022-08-10T07:16:54.207Z,29.39
2022-08-10T07:17:54.207Z,29.68
2022-08-10T07:18:54.210Z,29.81
2022-08-10T07:19:54.212Z,29.90
2022-08-10T07:20:54.216Z,30.13
2022-08-10T07:21:57.899Z,30.57
2022-08-10T07:23:08.239Z,30.65
2022-08-10T07:23:59.208Z,30.88
2022-08-10T07:24:54.225Z,31.40
2022-08-10T07:25:54.230Z,31.76
2022-08-10T07:26:54.232Z,30.77
2022-08-10T07:27:58.675Z,30.06
2022-08-10T07:28:54.239Z,29.66
2022-08-10T07:29:54.903Z,29.61
2022-08-10T07:30:54.244Z,30.06
2022-08-10T07:31:57.201Z,30.61
2022-08-10T07:32:54.252Z,31.14
2022-08-10T07:33:54.254Z,31.74
2022-08-10T07:34:54.260Z,31.54
2022-08-10T07:35:54.260Z,29.26
2022-08-10T07:36:54.265Z,27.60
2022-08-10T07:37:54.268Z,27.78
2022-08-10T07:38:54.273Z,28.51
2022-08-10T07:40:02.645Z,28.89
2022-08-10T07:40:54.279Z,28.42
2022-08-10T07:41:54.286Z,28.23
2022-08-10T07:42:54.289Z,28.88
2022-08-10T07:43:54.291Z,29.56
2022-08-10T07:44:54.296Z,30.24
2022-08-10T07:45:54.305Z,30.70
2022-08-10T07:46:54.302Z,31.15
2022-08-10T07:47:54.979Z,31.89
2022-08-10T07:48:54.316Z,32.12
2022-08-10T07:49:54.316Z,32.18
2022-08-10T07:50:54.320Z,32.31
2022-08-10T07:51:55.143Z,32.00
2022-08-10T07:52:54.328Z,31.55
2022-08-10T07:53:54.344Z,31.49
2022-08-10T07:54:54.334Z,31.76
2022-08-10T07:56:04.730Z,32.12
2022-08-10T07:56:54.341Z,32.43
2022-08-10T07:57:54.349Z,31.02
2022-08-10T07:58:54.353Z,30.68
2022-08-10T07:59:54.370Z,31.05
2022-08-10T08:00:54.363Z,31.43
2022-08-10T08:01:54.448Z,30.47
2022-08-10T08:02:54.370Z,28.72
2022-08-10T08:04:05.417Z,28.32
2022-08-10T08:04:54.381Z,28.10
2022-08-10T08:06:02.701Z,28.22
2022-08-10T08:06:54.388Z,26.81
2022-08-10T08:07:54.393Z,25.96
2022-08-10T08:08:54.398Z,25.84
2022-08-10T08:09:57.626Z,26.65
2022-08-10T08:10:54.411Z,27.60
2022-08-10T08:11:54.412Z,28.23
2022-08-10T08:12:54.416Z,28.88
2022-08-10T08:13:54.424Z,29.22
2022-08-10T08:14:54.428Z,28.49
2022-08-10T08:16:18.481Z,27.15
2022-08-10T08:16:54.435Z,26.09
2022-08-10T08:17:59.764Z,25.43
2022-08-10T08:19:23.956Z,25.04
2022-08-10T08:19:55.606Z,24.99
2022-08-10T08:20:54.466Z,25.84
2022-08-10T08:24:04.979Z,27.47
2022-08-10T08:24:05.581Z,27.21
2022-08-10T08:24:06.969Z,26.78
2022-08-10T08:24:54.468Z,27.78
2022-08-10T08:25:54.471Z,27.74
2022-08-10T08:26:54.475Z,27.75
2022-08-10T08:27:54.478Z,27.78
2022-08-10T08:28:54.479Z,27.17
2022-08-10T08:29:54.482Z,26.75
2022-08-10T08:30:54.485Z,26.77
2022-08-10T08:32:01.920Z,26.77
2022-08-10T08:32:54.489Z,26.65
2022-08-10T08:33:54.492Z,26.75
2022-08-10T08:34:54.491Z,26.22
2022-08-10T08:35:54.494Z,25.88
2022-08-10T08:36:59.213Z,25.69
2022-08-10T08:38:29.506Z,24.85
2022-08-10T08:38:54.505Z,24.50
2022-08-10T08:39:54.501Z,24.47
2022-08-10T08:40:54.501Z,24.53
2022-08-10T08:41:54.508Z,24.43
2022-08-10T08:42:54.509Z,24.26
2022-08-10T08:43:54.513Z,24.18
2022-08-10T08:44:54.507Z,24.13
2022-08-10T08:46:01.542Z,24.17
2022-08-10T08:46:59.287Z,24.23
2022-08-10T08:48:05.514Z,24.28
2022-08-10T08:48:54.512Z,24.36
2022-08-10T08:50:08.982Z,23.86
2022-08-10T08:50:57.559Z,23.47
2022-08-10T08:52:09.419Z,23.34
2022-08-10T08:52:54.518Z,23.43
2022-08-10T08:54:02.934Z,23.62
2022-08-10T08:54:54.522Z,23.68
2022-08-10T08:56:05.421Z,23.84
2022-08-10T08:56:54.521Z,23.95
2022-08-10T08:57:54.521Z,24.14
2022-08-10T08:58:54.524Z,24.23
2022-08-10T08:59:54.523Z,24.24
2022-08-10T09:00:54.523Z,24.24
2022-08-10T09:01:54.604Z,24.08
2022-08-10T09:02:55.113Z,24.10
2022-08-10T09:03:54.525Z,24.42
2022-08-10T09:04:54.523Z,25.04
2022-08-10T09:06:00.199Z,25.22
2022-08-10T09:06:54.525Z,25.21
2022-08-10T09:08:02.320Z,25.21
2022-08-10T09:08:54.525Z,25.14
2022-08-10T09:09:54.529Z,24.89
2022-08-10T09:10:54.527Z,24.76
2022-08-10T09:11:54.537Z,24.63
2022-08-10T09:12:54.554Z,24.54
2022-08-10T09:13:54.526Z,24.48
2022-08-10T09:14:54.523Z,24.39
2022-08-10T09:15:57.478Z,24.36
2022-08-10T09:16:54.528Z,24.42
2022-08-10T09:17:54.528Z,24.55
2022-08-10T09:18:54.530Z,24.48
2022-08-10T09:19:54.530Z,24.42
2022-08-10T09:20:54.529Z,24.55
2022-08-10T09:22:13.443Z,24.48
2022-08-10T09:22:57.413Z,24.43
2022-08-10T09:24:05.380Z,24.40
2022-08-10T09:24:54.528Z,24.40
2022-08-10T09:25:54.531Z,24.38
2022-08-10T09:26:54.536Z,24.39
2022-08-10T09:27:54.534Z,24.47
2022-08-10T09:29:11.483Z,24.53
2022-08-10T09:29:54.535Z,24.54
2022-08-10T09:31:21.010Z,24.39
2022-08-10T09:33:05.382Z,24.38
2022-08-10T09:36:16.604Z,24.48
2022-08-10T09:36:24.600Z,24.42
2022-08-10T09:36:25.758Z,24.45
2022-08-10T09:36:29.788Z,24.43
2022-08-10T09:36:54.539Z,24.50
2022-08-10T09:38:02.327Z,24.63
2022-08-10T09:38:54.543Z,24.54
2022-08-10T09:40:56.325Z,24.55
2022-08-10T09:41:01.159Z,24.58
2022-08-10T09:41:54.540Z,24.58
2022-08-10T09:43:21.603Z,24.53
2022-08-10T09:43:54.539Z,24.32
2022-08-10T09:44:57.401Z,24.30
2022-08-10T09:45:54.539Z,24.30
2022-08-10T09:46:54.541Z,24.39
2022-08-10T09:48:02.111Z,24.40
2022-08-10T09:48:54.543Z,24.43
2022-08-10T09:49:56.396Z,24.60
2022-08-10T09:51:54.545Z,24.60
2022-08-10T09:52:58.935Z,24.65
2022-08-10T09:53:54.544Z,24.65
2022-08-10T09:54:54.542Z,24.68
2022-08-10T09:56:17.410Z,24.66
2022-08-10T09:57:03.079Z,24.69
2022-08-10T09:57:55.003Z,24.78
2022-08-10T09:59:26.574Z,24.80
2022-08-10T10:00:01.522Z,24.80
2022-08-10T10:00:54.546Z,24.78
2022-08-10T10:02:02.651Z,24.86
2022-08-10T10:02:54.598Z,24.80
2022-08-10T10:03:54.566Z,24.73
2022-08-10T10:04:54.546Z,24.73
2022-08-10T10:05:54.547Z,24.76
2022-08-10T10:06:54.547Z,24.76
2022-08-10T10:07:54.550Z,24.81
2022-08-10T10:08:58.461Z,24.91
2022-08-10T10:09:54.547Z,24.98
2022-08-10T10:10:54.548Z,24.92
2022-08-10T10:11:54.547Z,24.88
2022-08-10T10:12:54.552Z,24.86
2022-08-10T10:14:03.737Z,24.78
2022-08-10T10:14:54.549Z,24.76
2022-08-10T10:15:54.549Z,24.68
2022-08-10T10:16:54.553Z,24.84
2022-08-10T10:17:54.551Z,24.98
2022-08-10T10:18:54.565Z,25.11
2022-08-10T10:19:54.547Z,25.13
2022-08-10T10:20:54.552Z,25.06
2022-08-10T10:21:56.609Z,25.16
2022-08-10T10:22:54.547Z,25.17
2022-08-10T10:24:21.640Z,25.13
2022-08-10T10:24:54.563Z,25.13
2022-08-10T10:25:57.768Z,25.17
2022-08-10T10:26:54.557Z,25.21
2022-08-10T10:27:54.553Z,25.32
2022-08-10T10:29:56.675Z,25.26
2022-08-10T10:30:54.555Z,25.26
2022-08-10T10:31:54.562Z,25.22
2022-08-10T10:32:57.799Z,25.33
2022-08-10T10:33:54.561Z,25.26
2022-08-10T10:34:54.558Z,25.26
2022-08-10T10:35:54.557Z,25.28
2022-08-10T10:36:54.559Z,25.25
2022-08-10T10:38:01.103Z,25.38
2022-08-10T10:38:54.564Z,25.28
2022-08-10T10:39:54.631Z,25.29
2022-08-10T10:40:54.580Z,25.38
2022-08-10T10:42:03.175Z,25.43
2022-08-10T10:42:54.561Z,25.48
2022-08-10T10:43:54.575Z,25.55
2022-08-10T10:44:54.562Z,25.65
2022-08-10T10:45:54.565Z,25.60
2022-08-10T10:46:54.563Z,25.59
2022-08-10T10:47:54.566Z,25.59
2022-08-10T10:48:54.563Z,25.68
2022-08-10T10:49:54.564Z,25.68
2022-08-10T10:50:54.573Z,25.69
2022-08-10T10:51:54.578Z,25.75
2022-08-10T10:52:54.570Z,25.70
2022-08-10T10:53:54.575Z,25.63
2022-08-10T10:54:54.581Z,25.66
2022-08-10T10:56:15.105Z,25.69
2022-08-10T10:56:54.572Z,25.81
2022-08-10T10:58:00.466Z,25.75
2022-08-10T10:58:54.589Z,25.72
2022-08-10T10:59:57.619Z,25.66
2022-08-10T11:00:54.589Z,25.72
2022-08-10T11:01:54.582Z,25.81
2022-08-10T11:02:54.608Z,25.77
2022-08-10T11:03:54.598Z,25.85
2022-08-10T11:04:57.347Z,25.88
2022-08-10T11:05:54.587Z,25.95
2022-08-10T11:06:54.594Z,25.88
2022-08-10T11:07:54.943Z,25.87
2022-08-10T11:08:54.597Z,26.07
2022-08-10T11:10:09.664Z,26.05
2022-08-10T11:10:54.577Z,26.13
2022-08-10T11:12:02.160Z,26.15
2022-08-10T11:12:54.579Z,26.16
2022-08-10T11:14:28.537Z,26.16
2022-08-10T11:14:54.582Z,25.98
2022-08-10T11:15:54.583Z,26.05
2022-08-10T11:16:57.162Z,26.02
2022-08-10T11:17:54.601Z,26.09
2022-08-10T11:18:54.618Z,26.19
2022-08-10T11:20:02.924Z,26.19
2022-08-10T11:20:54.585Z,26.21
2022-08-10T11:21:54.601Z,26.25
2022-08-10T11:22:54.591Z,26.33
2022-08-10T11:24:49.018Z,26.40
2022-08-10T11:24:54.590Z,26.44
2022-08-10T11:25:54.591Z,26.37
2022-08-10T11:26:54.613Z,26.45
2022-08-10T11:27:54.616Z,26.38
2022-08-10T11:28:54.613Z,26.43
2022-08-10T11:29:54.596Z,26.48
2022-08-10T11:30:54.595Z,26.40
2022-08-10T11:31:54.609Z,26.37
2022-08-10T11:32:54.631Z,26.40
2022-08-10T11:34:46.269Z,26.38
2022-08-10T11:35:10.524Z,26.45
2022-08-10T11:35:54.609Z,26.55
2022-08-10T11:36:54.602Z,26.40
2022-08-10T11:38:31.669Z,26.48
2022-08-10T11:39:13.495Z,26.40
2022-08-10T11:39:54.666Z,26.47
2022-08-10T11:40:54.624Z,26.56
2022-08-10T11:42:09.302Z,26.56
2022-08-10T11:42:54.608Z,26.63
2022-08-10T11:43:54.611Z,26.60
2022-08-10T11:44:54.614Z,26.78
2022-08-10T11:45:55.556Z,26.74
2022-08-10T11:46:54.637Z,26.71
2022-08-10T11:47:54.626Z,26.65
2022-08-10T11:48:57.038Z,26.65
2022-08-10T11:49:54.640Z,26.60
2022-08-10T11:50:54.630Z,26.77
2022-08-10T11:51:54.621Z,26.62
2022-08-10T11:52:54.636Z,26.78
2022-08-10T11:53:54.619Z,26.85
2022-08-10T11:54:54.629Z,27.02
2022-08-10T11:55:54.622Z,27.03
2022-08-10T11:56:58.457Z,26.77
2022-08-10T11:57:55.671Z,26.83
2022-08-10T11:58:54.645Z,26.77
2022-08-10T11:59:58.146Z,26.75
2022-08-10T12:00:54.621Z,26.73
2022-08-10T12:01:54.657Z,26.85
2022-08-10T12:02:54.659Z,26.95
2022-08-10T12:03:54.632Z,27.02
2022-08-10T12:04:54.652Z,27.14
2022-08-10T12:05:55.408Z,27.15
2022-08-10T12:06:56.238Z,27.26
2022-08-10T12:10:06.240Z,27.42
2022-08-10T12:10:09.094Z,27.42
2022-08-10T12:10:10.475Z,27.52
2022-08-10T12:10:54.641Z,27.48
2022-08-10T12:11:54.661Z,27.39
2022-08-10T12:12:54.662Z,27.40
2022-08-10T12:14:19.753Z,27.15
2022-08-10T12:14:54.650Z,27.02
2022-08-10T12:15:54.663Z,27.03
2022-08-10T12:16:54.669Z,27.10
2022-08-10T12:17:54.670Z,27.02
2022-08-10T12:18:54.667Z,27.05
2022-08-10T12:19:59.835Z,27.00
2022-08-10T12:20:54.655Z,27.07
2022-08-10T12:21:54.680Z,27.15
2022-08-10T12:22:54.672Z,27.22
2022-08-10T12:24:02.440Z,27.40
2022-08-10T12:24:54.659Z,27.37
2022-08-10T12:25:56.348Z,27.51
2022-08-10T12:26:54.662Z,27.49
2022-08-10T12:27:54.684Z,27.40
2022-08-10T12:28:54.667Z,27.44
2022-08-10T12:29:54.686Z,27.27
2022-08-10T12:30:54.669Z,27.21
2022-08-10T12:31:54.684Z,27.29
2022-08-10T12:32:54.669Z,27.27
2022-08-10T12:34:01.191Z,27.15
2022-08-10T12:34:54.679Z,26.96
2022-08-10T12:36:16.863Z,26.96
2022-08-10T12:36:54.676Z,27.00
2022-08-10T12:37:54.675Z,26.97
2022-08-10T12:38:54.706Z,27.05
2022-08-10T12:40:06.930Z,26.99
2022-08-10T12:40:54.689Z,26.97
2022-08-10T12:41:54.703Z,27.12
2022-08-10T12:43:01.600Z,27.27
2022-08-10T12:44:06.461Z,27.26
2022-08-10T12:44:54.708Z,27.14
2022-08-10T12:45:54.728Z,26.99
2022-08-10T12:46:54.691Z,27.02
2022-08-10T12:47:54.710Z,26.99
2022-08-10T12:48:54.710Z,27.00
2022-08-10T12:50:29.390Z,27.03
2022-08-10T12:50:54.713Z,27.12
2022-08-10T12:51:54.709Z,27.14
2022-08-10T12:52:54.699Z,27.14
2022-08-10T12:53:54.709Z,27.21
2022-08-10T12:54:54.702Z,27.27
2022-08-10T12:55:54.702Z,27.32